sensor_id;sensor_type;location;lat;lon;timestamp;P1;durP1;ratioP1;P2;durP2;ratioP2
19593;SDS011;9944;48.240;16.478;2024-03-07T00:00:31;8.98;;;5.70;;
19593;SDS011;9944;48.240;16.478;2024-03-07T00:04:35;7.88;;;4.80;;
19593;SDS011;9944;48.240;16.478;2024-03-07T00:08:38;8.88;;;4.97;;
19593;SDS011;9944;48.240;16.478;2024-03-07T00:12:42;7.80;;;5.28;;
19593;SDS011;9944;48.240;16.478;2024-03-07T00:16:46;8.75;;;5.80;;
19593;SDS011;9944;48.240;16.478;2024-03-07T00:20:51;10.05;;;5.93;;
19593;SDS011;9944;48.240;16.478;2024-03-07T00:24:56;6.45;;;5.22;;
19593;SDS011;9944;48.240;16.478;2024-03-07T00:29:00;8.60;;;5.53;;
19593;SDS011;9944;48.240;16.478;2024-03-07T00:33:04;8.77;;;5.57;;
19593;SDS011;9944;48.240;16.478;2024-03-07T00:37:08;8.38;;;5.13;;
19593;SDS011;9944;48.240;16.478;2024-03-07T00:41:11;8.63;;;5.25;;
19593;SDS011;9944;48.240;16.478;2024-03-07T00:45:15;8.77;;;4.85;;
19593;SDS011;9944;48.240;16.478;2024-03-07T00:49:19;9.82;;;5.35;;
19593;SDS011;9944;48.240;16.478;2024-03-07T00:53:23;8.82;;;5.68;;
19593;SDS011;9944;48.240;16.478;2024-03-07T00:57:27;7.80;;;5.20;;
19593;SDS011;9944;48.240;16.478;2024-03-07T01:01:31;7.22;;;4.50;;
19593;SDS011;9944;48.240;16.478;2024-03-07T01:05:35;11.05;;;5.72;;
19593;SDS011;9944;48.240;16.478;2024-03-07T01:09:39;9.02;;;5.43;;
19593;SDS011;9944;48.240;16.478;2024-03-07T01:13:42;8.15;;;5.25;;
19593;SDS011;9944;48.240;16.478;2024-03-07T01:17:45;8.20;;;5.43;;
19593;SDS011;9944;48.240;16.478;2024-03-07T01:21:49;10.60;;;5.60;;
19593;SDS011;9944;48.240;16.478;2024-03-07T01:25:54;8.85;;;5.50;;
19593;SDS011;9944;48.240;16.478;2024-03-07T01:29:58;10.93;;;5.28;;
19593;SDS011;9944;48.240;16.478;2024-03-07T01:34:03;9.15;;;5.32;;
19593;SDS011;9944;48.240;16.478;2024-03-07T01:38:06;9.98;;;5.05;;
19593;SDS011;9944;48.240;16.478;2024-03-07T01:42:11;10.75;;;5.68;;
19593;SDS011;9944;48.240;16.478;2024-03-07T01:46:14;9.32;;;5.18;;
19593;SDS011;9944;48.240;16.478;2024-03-07T01:50:18;7.53;;;4.90;;
19593;SDS011;9944;48.240;16.478;2024-03-07T01:54:21;7.75;;;5.15;;
19593;SDS011;9944;48.240;16.478;2024-03-07T01:58:25;10.95;;;5.75;;
19593;SDS011;9944;48.240;16.478;2024-03-07T02:02:29;8.85;;;4.88;;
19593;SDS011;9944;48.240;16.478;2024-03-07T02:06:32;6.75;;;4.63;;
19593;SDS011;9944;48.240;16.478;2024-03-07T02:10:36;10.52;;;5.03;;
19593;SDS011;9944;48.240;16.478;2024-03-07T02:14:41;9.55;;;5.60;;
19593;SDS011;9944;48.240;16.478;2024-03-07T02:18:44;8.20;;;4.90;;
19593;SDS011;9944;48.240;16.478;2024-03-07T02:22:49;8.35;;;5.20;;
19593;SDS011;9944;48.240;16.478;2024-03-07T02:26:52;9.38;;;5.25;;
19593;SDS011;9944;48.240;16.478;2024-03-07T02:30:55;8.15;;;4.75;;
19593;SDS011;9944;48.240;16.478;2024-03-07T02:34:58;9.45;;;5.75;;
19593;SDS011;9944;48.240;16.478;2024-03-07T02:39:03;9.95;;;6.00;;
19593;SDS011;9944;48.240;16.478;2024-03-07T02:43:08;10.65;;;5.95;;
19593;SDS011;9944;48.240;16.478;2024-03-07T02:47:12;9.95;;;5.53;;
19593;SDS011;9944;48.240;16.478;2024-03-07T02:51:15;11.65;;;5.97;;
19593;SDS011;9944;48.240;16.478;2024-03-07T02:55:19;11.88;;;6.32;;
19593;SDS011;9944;48.240;16.478;2024-03-07T02:59:23;9.75;;;5.40;;
19593;SDS011;9944;48.240;16.478;2024-03-07T03:03:26;10.50;;;5.53;;
19593;SDS011;9944;48.240;16.478;2024-03-07T03:07:29;11.05;;;5.68;;
19593;SDS011;9944;48.240;16.478;2024-03-07T03:11:34;9.73;;;6.15;;
19593;SDS011;9944;48.240;16.478;2024-03-07T03:15:38;9.60;;;5.88;;
19593;SDS011;9944;48.240;16.478;2024-03-07T03:19:41;10.60;;;5.43;;
19593;SDS011;9944;48.240;16.478;2024-03-07T03:23:45;12.18;;;5.93;;
19593;SDS011;9944;48.240;16.478;2024-03-07T03:27:50;9.48;;;5.45;;
19593;SDS011;9944;48.240;16.478;2024-03-07T03:31:54;9.32;;;5.68;;
19593;SDS011;9944;48.240;16.478;2024-03-07T03:35:57;9.45;;;5.13;;
19593;SDS011;9944;48.240;16.478;2024-03-07T03:40:01;10.45;;;4.90;;
19593;SDS011;9944;48.240;16.478;2024-03-07T03:44:07;9.35;;;5.30;;
19593;SDS011;9944;48.240;16.478;2024-03-07T03:48:11;10.20;;;4.90;;
19593;SDS011;9944;48.240;16.478;2024-03-07T03:52:15;7.78;;;4.82;;
19593;SDS011;9944;48.240;16.478;2024-03-07T03:56:18;7.88;;;4.80;;
19593;SDS011;9944;48.240;16.478;2024-03-07T04:00:23;9.80;;;5.60;;
19593;SDS011;9944;48.240;16.478;2024-03-07T04:04:26;7.72;;;4.70;;
19593;SDS011;9944;48.240;16.478;2024-03-07T04:08:30;7.53;;;4.03;;
19593;SDS011;9944;48.240;16.478;2024-03-07T04:12:33;9.85;;;4.70;;
19593;SDS011;9944;48.240;16.478;2024-03-07T04:16:38;7.93;;;4.68;;
19593;SDS011;9944;48.240;16.478;2024-03-07T04:20:43;8.05;;;4.72;;
19593;SDS011;9944;48.240;16.478;2024-03-07T04:24:46;10.25;;;4.50;;
19593;SDS011;9944;48.240;16.478;2024-03-07T04:28:55;6.95;;;4.50;;
19593;SDS011;9944;48.240;16.478;2024-03-07T04:33:00;6.25;;;4.28;;
19593;SDS011;9944;48.240;16.478;2024-03-07T04:37:04;8.63;;;5.40;;
19593;SDS011;9944;48.240;16.478;2024-03-07T04:41:07;7.22;;;4.78;;
19593;SDS011;9944;48.240;16.478;2024-03-07T04:45:11;8.00;;;5.05;;
19593;SDS011;9944;48.240;16.478;2024-03-07T04:49:16;7.18;;;4.60;;
19593;SDS011;9944;48.240;16.478;2024-03-07T04:53:20;8.27;;;4.65;;
19593;SDS011;9944;48.240;16.478;2024-03-07T04:57:23;6.97;;;4.43;;
19593;SDS011;9944;48.240;16.478;2024-03-07T05:01:27;7.63;;;4.90;;
19593;SDS011;9944;48.240;16.478;2024-03-07T05:05:34;6.32;;;4.68;;
19593;SDS011;9944;48.240;16.478;2024-03-07T05:09:37;10.65;;;5.00;;
19593;SDS011;9944;48.240;16.478;2024-03-07T05:13:40;8.63;;;5.35;;
19593;SDS011;9944;48.240;16.478;2024-03-07T05:17:45;8.48;;;5.13;;
19593;SDS011;9944;48.240;16.478;2024-03-07T05:21:49;7.88;;;5.00;;
19593;SDS011;9944;48.240;16.478;2024-03-07T05:25:53;8.35;;;5.22;;
19593;SDS011;9944;48.240;16.478;2024-03-07T05:29:56;7.85;;;5.07;;
19593;SDS011;9944;48.240;16.478;2024-03-07T05:33:59;7.18;;;4.70;;
19593;SDS011;9944;48.240;16.478;2024-03-07T05:38:06;8.57;;;5.07;;
19593;SDS011;9944;48.240;16.478;2024-03-07T05:42:10;8.80;;;5.40;;
19593;SDS011;9944;48.240;16.478;2024-03-07T05:46:15;7.45;;;4.95;;
19593;SDS011;9944;48.240;16.478;2024-03-07T05:50:19;6.85;;;4.57;;
19593;SDS011;9944;48.240;16.478;2024-03-07T05:54:24;9.05;;;5.05;;
19593;SDS011;9944;48.240;16.478;2024-03-07T05:58:27;7.60;;;5.28;;
19593;SDS011;9944;48.240;16.478;2024-03-07T06:02:30;8.73;;;4.72;;
19593;SDS011;9944;48.240;16.478;2024-03-07T06:06:35;9.27;;;5.45;;
19593;SDS011;9944;48.240;16.478;2024-03-07T06:10:40;8.05;;;5.28;;
19593;SDS011;9944;48.240;16.478;2024-03-07T06:14:44;10.25;;;5.07;;
19593;SDS011;9944;48.240;16.478;2024-03-07T06:18:47;7.40;;;4.47;;
19593;SDS011;9944;48.240;16.478;2024-03-07T06:22:50;11.63;;;4.97;;
19593;SDS011;9944;48.240;16.478;2024-03-07T06:26:55;8.45;;;4.93;;
19593;SDS011;9944;48.240;16.478;2024-03-07T06:31:06;10.38;;;5.78;;
19593;SDS011;9944;48.240;16.478;2024-03-07T06:35:10;8.93;;;5.65;;
19593;SDS011;9944;48.240;16.478;2024-03-07T06:39:13;9.27;;;5.05;;
19593;SDS011;9944;48.240;16.478;2024-03-07T06:43:18;10.48;;;5.93;;
19593;SDS011;9944;48.240;16.478;2024-03-07T06:47:22;9.50;;;5.50;;
19593;SDS011;9944;48.240;16.478;2024-03-07T06:51:25;13.20;;;6.05;;
19593;SDS011;9944;48.240;16.478;2024-03-07T06:55:28;9.27;;;5.82;;
19593;SDS011;9944;48.240;16.478;2024-03-07T06:59:33;8.25;;;4.95;;
19593;SDS011;9944;48.240;16.478;2024-03-07T07:03:37;10.25;;;5.45;;
19593;SDS011;9944;48.240;16.478;2024-03-07T07:07:41;10.30;;;5.95;;
19593;SDS011;9944;48.240;16.478;2024-03-07T07:11:44;9.70;;;5.50;;
19593;SDS011;9944;48.240;16.478;2024-03-07T07:15:50;9.80;;;5.45;;
19593;SDS011;9944;48.240;16.478;2024-03-07T07:19:56;9.55;;;5.80;;
19593;SDS011;9944;48.240;16.478;2024-03-07T07:24:00;11.25;;;6.00;;
19593;SDS011;9944;48.240;16.478;2024-03-07T07:28:04;9.55;;;4.82;;
19593;SDS011;9944;48.240;16.478;2024-03-07T07:32:10;9.30;;;5.78;;
19593;SDS011;9944;48.240;16.478;2024-03-07T07:36:14;9.07;;;5.63;;
19593;SDS011;9944;48.240;16.478;2024-03-07T07:40:18;10.25;;;5.70;;
19593;SDS011;9944;48.240;16.478;2024-03-07T07:44:24;9.70;;;5.13;;
19593;SDS011;9944;48.240;16.478;2024-03-07T07:48:29;8.57;;;4.85;;
19593;SDS011;9944;48.240;16.478;2024-03-07T07:52:33;8.95;;;5.25;;
19593;SDS011;9944;48.240;16.478;2024-03-07T07:56:36;9.02;;;5.40;;
19593;SDS011;9944;48.240;16.478;2024-03-07T08:00:40;7.55;;;4.35;;
19593;SDS011;9944;48.240;16.478;2024-03-07T08:04:46;8.82;;;5.10;;
19593;SDS011;9944;48.240;16.478;2024-03-07T08:08:51;9.88;;;5.32;;
19593;SDS011;9944;48.240;16.478;2024-03-07T08:12:54;8.35;;;4.85;;
19593;SDS011;9944;48.240;16.478;2024-03-07T08:16:58;7.82;;;4.65;;
19593;SDS011;9944;48.240;16.478;2024-03-07T08:21:03;7.63;;;4.97;;
19593;SDS011;9944;48.240;16.478;2024-03-07T08:25:07;6.93;;;4.85;;
19593;SDS011;9944;48.240;16.478;2024-03-07T08:29:11;9.20;;;5.20;;
19593;SDS011;9944;48.240;16.478;2024-03-07T08:33:15;10.02;;;5.55;;
19593;SDS011;9944;48.240;16.478;2024-03-07T08:37:20;8.73;;;4.97;;
19593;SDS011;9944;48.240;16.478;2024-03-07T08:41:24;7.47;;;4.70;;
19593;SDS011;9944;48.240;16.478;2024-03-07T08:45:27;11.45;;;5.25;;
19593;SDS011;9944;48.240;16.478;2024-03-07T08:49:37;12.50;;;5.93;;
19593;SDS011;9944;48.240;16.478;2024-03-07T08:53:42;11.18;;;6.43;;
19593;SDS011;9944;48.240;16.478;2024-03-07T08:57:46;8.52;;;5.05;;
19593;SDS011;9944;48.240;16.478;2024-03-07T09:01:50;10.07;;;5.65;;
19593;SDS011;9944;48.240;16.478;2024-03-07T09:05:54;10.70;;;5.55;;
19593;SDS011;9944;48.240;16.478;2024-03-07T09:09:58;9.48;;;5.15;;
19593;SDS011;9944;48.240;16.478;2024-03-07T09:14:02;8.48;;;4.82;;
19593;SDS011;9944;48.240;16.478;2024-03-07T09:18:08;9.07;;;4.82;;
19593;SDS011;9944;48.240;16.478;2024-03-07T09:22:12;7.50;;;4.40;;
19593;SDS011;9944;48.240;16.478;2024-03-07T09:26:17;7.07;;;4.55;;
19593;SDS011;9944;48.240;16.478;2024-03-07T09:30:20;10.20;;;5.18;;
19593;SDS011;9944;48.240;16.478;2024-03-07T09:34:29;8.05;;;5.07;;
19593;SDS011;9944;48.240;16.478;2024-03-07T09:38:33;9.63;;;4.90;;
19593;SDS011;9944;48.240;16.478;2024-03-07T09:42:42;9.13;;;5.15;;
19593;SDS011;9944;48.240;16.478;2024-03-07T09:46:47;9.73;;;5.57;;
19593;SDS011;9944;48.240;16.478;2024-03-07T09:50:53;10.13;;;5.63;;
19593;SDS011;9944;48.240;16.478;2024-03-07T09:55:01;12.05;;;6.03;;
19593;SDS011;9944;48.240;16.478;2024-03-07T09:59:05;14.30;;;7.88;;
19593;SDS011;9944;48.240;16.478;2024-03-07T10:03:14;11.73;;;6.90;;
19593;SDS011;9944;48.240;16.478;2024-03-07T10:07:21;11.18;;;6.38;;
19593;SDS011;9944;48.240;16.478;2024-03-07T10:11:25;12.88;;;6.47;;
19593;SDS011;9944;48.240;16.478;2024-03-07T10:15:29;14.55;;;7.00;;
19593;SDS011;9944;48.240;16.478;2024-03-07T10:19:33;12.77;;;7.15;;
19593;SDS011;9944;48.240;16.478;2024-03-07T10:23:37;13.63;;;7.00;;
19593;SDS011;9944;48.240;16.478;2024-03-07T10:27:42;13.73;;;6.90;;
19593;SDS011;9944;48.240;16.478;2024-03-07T10:31:47;12.98;;;6.97;;
19593;SDS011;9944;48.240;16.478;2024-03-07T10:36:05;11.32;;;6.38;;
19593;SDS011;9944;48.240;16.478;2024-03-07T10:40:12;11.45;;;6.95;;
19593;SDS011;9944;48.240;16.478;2024-03-07T10:44:20;12.63;;;7.40;;
19593;SDS011;9944;48.240;16.478;2024-03-07T10:48:31;11.75;;;7.13;;
19593;SDS011;9944;48.240;16.478;2024-03-07T10:52:43;12.65;;;7.05;;
19593;SDS011;9944;48.240;16.478;2024-03-07T10:56:55;13.38;;;7.07;;
19593;SDS011;9944;48.240;16.478;2024-03-07T11:01:10;17.85;;;7.55;;
19593;SDS011;9944;48.240;16.478;2024-03-07T11:05:17;12.52;;;7.55;;
19593;SDS011;9944;48.240;16.478;2024-03-07T11:09:21;15.50;;;7.63;;
19593;SDS011;9944;48.240;16.478;2024-03-07T11:13:30;13.90;;;7.93;;
19593;SDS011;9944;48.240;16.478;2024-03-07T11:17:36;14.35;;;7.35;;
19593;SDS011;9944;48.240;16.478;2024-03-07T11:21:42;14.27;;;8.10;;
19593;SDS011;9944;48.240;16.478;2024-03-07T11:25:47;16.73;;;8.23;;
19593;SDS011;9944;48.240;16.478;2024-03-07T11:29:50;16.08;;;7.50;;
19593;SDS011;9944;48.240;16.478;2024-03-07T11:34:12;15.27;;;8.18;;
19593;SDS011;9944;48.240;16.478;2024-03-07T11:38:18;14.75;;;7.75;;
19593;SDS011;9944;48.240;16.478;2024-03-07T11:42:25;14.52;;;7.53;;
19593;SDS011;9944;48.240;16.478;2024-03-07T11:46:30;13.75;;;8.00;;
19593;SDS011;9944;48.240;16.478;2024-03-07T11:50:37;15.02;;;8.80;;
19593;SDS011;9944;48.240;16.478;2024-03-07T11:54:42;19.65;;;9.35;;
19593;SDS011;9944;48.240;16.478;2024-03-07T11:58:49;18.20;;;9.07;;
19593;SDS011;9944;48.240;16.478;2024-03-07T12:02:56;15.77;;;8.18;;
19593;SDS011;9944;48.240;16.478;2024-03-07T12:07:00;14.38;;;8.63;;
19593;SDS011;9944;48.240;16.478;2024-03-07T12:11:05;18.60;;;9.73;;
19593;SDS011;9944;48.240;16.478;2024-03-07T12:15:09;20.48;;;9.68;;
19593;SDS011;9944;48.240;16.478;2024-03-07T12:19:21;19.30;;;10.13;;
19593;SDS011;9944;48.240;16.478;2024-03-07T12:23:24;19.27;;;10.05;;
19593;SDS011;9944;48.240;16.478;2024-03-07T12:27:30;18.20;;;10.20;;
19593;SDS011;9944;48.240;16.478;2024-03-07T12:31:35;19.42;;;9.82;;
19593;SDS011;9944;48.240;16.478;2024-03-07T12:35:39;17.45;;;9.82;;
19593;SDS011;9944;48.240;16.478;2024-03-07T12:39:44;19.25;;;9.80;;
19593;SDS011;9944;48.240;16.478;2024-03-07T12:43:50;15.35;;;9.23;;
19593;SDS011;9944;48.240;16.478;2024-03-07T12:47:54;15.48;;;9.00;;
19593;SDS011;9944;48.240;16.478;2024-03-07T12:51:58;16.48;;;8.85;;
19593;SDS011;9944;48.240;16.478;2024-03-07T12:56:02;15.40;;;8.57;;
19593;SDS011;9944;48.240;16.478;2024-03-07T13:00:08;15.45;;;8.95;;
19593;SDS011;9944;48.240;16.478;2024-03-07T13:04:20;15.10;;;8.93;;
19593;SDS011;9944;48.240;16.478;2024-03-07T13:08:23;16.92;;;9.55;;
19593;SDS011;9944;48.240;16.478;2024-03-07T13:12:28;11.50;;;7.15;;
19593;SDS011;9944;48.240;16.478;2024-03-07T13:16:34;15.30;;;9.05;;
19593;SDS011;9944;48.240;16.478;2024-03-07T13:20:38;15.70;;;8.55;;
19593;SDS011;9944;48.240;16.478;2024-03-07T13:24:41;20.20;;;9.27;;
19593;SDS011;9944;48.240;16.478;2024-03-07T13:28:47;15.57;;;9.02;;
19593;SDS011;9944;48.240;16.478;2024-03-07T13:32:51;19.17;;;9.27;;
19593;SDS011;9944;48.240;16.478;2024-03-07T13:36:55;18.33;;;10.00;;
19593;SDS011;9944;48.240;16.478;2024-03-07T13:41:02;17.65;;;9.45;;
19593;SDS011;9944;48.240;16.478;2024-03-07T13:45:08;16.05;;;9.25;;
19593;SDS011;9944;48.240;16.478;2024-03-07T13:49:15;15.52;;;8.30;;
19593;SDS011;9944;48.240;16.478;2024-03-07T13:53:19;15.15;;;8.75;;
19593;SDS011;9944;48.240;16.478;2024-03-07T13:57:35;17.67;;;9.40;;
19593;SDS011;9944;48.240;16.478;2024-03-07T14:01:48;16.77;;;8.77;;
19593;SDS011;9944;48.240;16.478;2024-03-07T14:06:03;17.08;;;8.95;;
19593;SDS011;9944;48.240;16.478;2024-03-07T14:10:22;17.00;;;9.35;;
19593;SDS011;9944;48.240;16.478;2024-03-07T14:15:04;18.33;;;9.32;;
19593;SDS011;9944;48.240;16.478;2024-03-07T14:29:22;19.92;;;9.75;;
19593;SDS011;9944;48.240;16.478;2024-03-07T14:33:47;18.98;;;10.27;;
19593;SDS011;9944;48.240;16.478;2024-03-07T14:38:02;22.70;;;11.20;;
19593;SDS011;9944;48.240;16.478;2024-03-07T14:42:09;19.33;;;10.63;;
19593;SDS011;9944;48.240;16.478;2024-03-07T14:46:18;21.52;;;11.55;;
19593;SDS011;9944;48.240;16.478;2024-03-07T14:50:21;25.73;;;12.88;;
19593;SDS011;9944;48.240;16.478;2024-03-07T14:54:28;26.65;;;14.07;;
19593;SDS011;9944;48.240;16.478;2024-03-07T14:58:32;25.95;;;13.30;;
19593;SDS011;9944;48.240;16.478;2024-03-07T15:02:37;27.77;;;12.70;;
19593;SDS011;9944;48.240;16.478;2024-03-07T15:06:40;25.40;;;13.38;;
19593;SDS011;9944;48.240;16.478;2024-03-07T15:10:48;25.85;;;13.63;;
19593;SDS011;9944;48.240;16.478;2024-03-07T15:14:55;28.45;;;13.23;;
19593;SDS011;9944;48.240;16.478;2024-03-07T15:19:15;26.05;;;13.60;;
19593;SDS011;9944;48.240;16.478;2024-03-07T15:23:19;24.67;;;12.23;;
19593;SDS011;9944;48.240;16.478;2024-03-07T15:27:24;30.33;;;14.40;;
19593;SDS011;9944;48.240;16.478;2024-03-07T15:31:28;25.88;;;13.88;;
19593;SDS011;9944;48.240;16.478;2024-03-07T15:35:33;23.50;;;11.70;;
19593;SDS011;9944;48.240;16.478;2024-03-07T15:39:36;23.80;;;12.90;;
19593;SDS011;9944;48.240;16.478;2024-03-07T15:43:41;28.35;;;14.02;;
19593;SDS011;9944;48.240;16.478;2024-03-07T15:47:46;29.10;;;13.77;;
19593;SDS011;9944;48.240;16.478;2024-03-07T15:51:53;21.30;;;12.65;;
19593;SDS011;9944;48.240;16.478;2024-03-07T15:56:06;24.48;;;13.35;;
19593;SDS011;9944;48.240;16.478;2024-03-07T16:00:10;26.20;;;13.35;;
19593;SDS011;9944;48.240;16.478;2024-03-07T16:04:24;31.75;;;14.15;;
19593;SDS011;9944;48.240;16.478;2024-03-07T16:08:29;23.10;;;12.70;;
19593;SDS011;9944;48.240;16.478;2024-03-07T16:12:33;29.08;;;13.43;;
19593;SDS011;9944;48.240;16.478;2024-03-07T16:16:39;26.63;;;13.45;;
19593;SDS011;9944;48.240;16.478;2024-03-07T16:20:43;28.95;;;14.57;;
19593;SDS011;9944;48.240;16.478;2024-03-07T16:24:49;29.30;;;13.50;;
19593;SDS011;9944;48.240;16.478;2024-03-07T16:28:54;27.08;;;13.85;;
19593;SDS011;9944;48.240;16.478;2024-03-07T16:32:58;27.40;;;14.05;;
19593;SDS011;9944;48.240;16.478;2024-03-07T16:37:02;28.92;;;14.68;;
19593;SDS011;9944;48.240;16.478;2024-03-07T16:41:06;30.00;;;14.02;;
19593;SDS011;9944;48.240;16.478;2024-03-07T16:45:11;28.20;;;14.35;;
19593;SDS011;9944;48.240;16.478;2024-03-07T16:49:16;30.92;;;13.60;;
19593;SDS011;9944;48.240;16.478;2024-03-07T16:53:19;28.13;;;15.15;;
19593;SDS011;9944;48.240;16.478;2024-03-07T16:57:22;27.33;;;14.95;;
19593;SDS011;9944;48.240;16.478;2024-03-07T17:01:28;26.20;;;13.43;;
19593;SDS011;9944;48.240;16.478;2024-03-07T17:05:32;27.95;;;14.02;;
19593;SDS011;9944;48.240;16.478;2024-03-07T17:09:36;33.13;;;15.70;;
19593;SDS011;9944;48.240;16.478;2024-03-07T17:13:43;31.05;;;14.38;;
19593;SDS011;9944;48.240;16.478;2024-03-07T17:17:48;27.75;;;14.50;;
19593;SDS011;9944;48.240;16.478;2024-03-07T17:21:53;30.83;;;15.00;;
19593;SDS011;9944;48.240;16.478;2024-03-07T17:25:56;30.40;;;15.00;;
19593;SDS011;9944;48.240;16.478;2024-03-07T17:29:59;30.88;;;14.52;;
19593;SDS011;9944;48.240;16.478;2024-03-07T17:34:04;29.50;;;14.93;;
19593;SDS011;9944;48.240;16.478;2024-03-07T17:38:08;29.60;;;14.55;;
19593;SDS011;9944;48.240;16.478;2024-03-07T17:42:13;29.88;;;14.90;;
19593;SDS011;9944;48.240;16.478;2024-03-07T17:46:17;31.65;;;16.02;;
19593;SDS011;9944;48.240;16.478;2024-03-07T17:50:24;30.23;;;14.93;;
19593;SDS011;9944;48.240;16.478;2024-03-07T17:54:29;29.52;;;14.65;;
19593;SDS011;9944;48.240;16.478;2024-03-07T17:58:32;30.88;;;15.25;;
19593;SDS011;9944;48.240;16.478;2024-03-07T18:02:37;35.60;;;15.63;;
19593;SDS011;9944;48.240;16.478;2024-03-07T18:06:41;32.78;;;14.85;;
19593;SDS011;9944;48.240;16.478;2024-03-07T18:10:46;32.13;;;15.23;;
19593;SDS011;9944;48.240;16.478;2024-03-07T18:14:50;28.92;;;14.40;;
19593;SDS011;9944;48.240;16.478;2024-03-07T18:19:14;29.48;;;15.07;;
19593;SDS011;9944;48.240;16.478;2024-03-07T18:23:19;29.27;;;14.18;;
19593;SDS011;9944;48.240;16.478;2024-03-07T18:27:23;32.80;;;16.30;;
19593;SDS011;9944;48.240;16.478;2024-03-07T18:31:28;32.53;;;15.18;;
19593;SDS011;9944;48.240;16.478;2024-03-07T18:35:32;33.00;;;15.88;;
19593;SDS011;9944;48.240;16.478;2024-03-07T18:39:40;35.75;;;16.20;;
19593;SDS011;9944;48.240;16.478;2024-03-07T18:43:45;28.60;;;14.98;;
19593;SDS011;9944;48.240;16.478;2024-03-07T18:47:49;31.20;;;14.30;;
19593;SDS011;9944;48.240;16.478;2024-03-07T18:51:54;27.52;;;14.68;;
19593;SDS011;9944;48.240;16.478;2024-03-07T18:55:59;33.40;;;15.05;;
19593;SDS011;9944;48.240;16.478;2024-03-07T19:00:15;29.73;;;14.02;;
19593;SDS011;9944;48.240;16.478;2024-03-07T19:04:34;32.00;;;15.73;;
19593;SDS011;9944;48.240;16.478;2024-03-07T19:08:37;26.48;;;13.82;;
19593;SDS011;9944;48.240;16.478;2024-03-07T19:12:42;30.60;;;14.68;;
19593;SDS011;9944;48.240;16.478;2024-03-07T19:16:46;32.08;;;15.52;;
19593;SDS011;9944;48.240;16.478;2024-03-07T19:20:53;34.08;;;15.40;;
19593;SDS011;9944;48.240;16.478;2024-03-07T19:24:57;29.73;;;14.70;;
19593;SDS011;9944;48.240;16.478;2024-03-07T19:29:02;33.22;;;15.75;;
19593;SDS011;9944;48.240;16.478;2024-03-07T19:33:06;27.35;;;13.88;;
19593;SDS011;9944;48.240;16.478;2024-03-07T19:37:16;29.40;;;13.13;;
19593;SDS011;9944;48.240;16.478;2024-03-07T19:41:19;29.60;;;14.13;;
19593;SDS011;9944;48.240;16.478;2024-03-07T19:45:26;32.38;;;15.02;;
19593;SDS011;9944;48.240;16.478;2024-03-07T19:49:30;29.23;;;13.50;;
19593;SDS011;9944;48.240;16.478;2024-03-07T19:53:33;27.35;;;14.20;;
19593;SDS011;9944;48.240;16.478;2024-03-07T19:57:38;32.65;;;14.40;;
19593;SDS011;9944;48.240;16.478;2024-03-07T20:01:44;26.17;;;14.50;;
19593;SDS011;9944;48.240;16.478;2024-03-07T20:05:48;29.08;;;13.90;;
19593;SDS011;9944;48.240;16.478;2024-03-07T20:09:52;31.83;;;14.75;;
19593;SDS011;9944;48.240;16.478;2024-03-07T20:13:55;27.52;;;13.43;;
19593;SDS011;9944;48.240;16.478;2024-03-07T20:18:00;30.80;;;14.10;;
19593;SDS011;9944;48.240;16.478;2024-03-07T20:22:03;31.15;;;14.77;;
19593;SDS011;9944;48.240;16.478;2024-03-07T20:26:08;26.98;;;13.90;;
19593;SDS011;9944;48.240;16.478;2024-03-07T20:30:13;28.38;;;14.55;;
19593;SDS011;9944;48.240;16.478;2024-03-07T20:34:19;31.23;;;14.10;;
19593;SDS011;9944;48.240;16.478;2024-03-07T20:38:23;31.23;;;13.63;;
19593;SDS011;9944;48.240;16.478;2024-03-07T20:42:26;30.33;;;13.55;;
19593;SDS011;9944;48.240;16.478;2024-03-07T20:46:30;27.00;;;13.20;;
19593;SDS011;9944;48.240;16.478;2024-03-07T20:50:34;28.45;;;13.23;;
19593;SDS011;9944;48.240;16.478;2024-03-07T20:54:41;28.08;;;14.00;;
19593;SDS011;9944;48.240;16.478;2024-03-07T20:58:44;30.42;;;14.80;;
19593;SDS011;9944;48.240;16.478;2024-03-07T21:02:50;30.02;;;14.30;;
19593;SDS011;9944;48.240;16.478;2024-03-07T21:06:58;27.40;;;13.60;;
19593;SDS011;9944;48.240;16.478;2024-03-07T21:11:01;26.95;;;13.65;;
19593;SDS011;9944;48.240;16.478;2024-03-07T21:15:08;26.92;;;13.13;;
19593;SDS011;9944;48.240;16.478;2024-03-07T21:19:14;30.17;;;14.05;;
19593;SDS011;9944;48.240;16.478;2024-03-07T21:23:19;27.20;;;13.02;;
19593;SDS011;9944;48.240;16.478;2024-03-07T21:27:26;27.10;;;13.98;;
19593;SDS011;9944;48.240;16.478;2024-03-07T21:31:30;29.75;;;14.32;;
19593;SDS011;9944;48.240;16.478;2024-03-07T21:35:34;32.58;;;14.90;;
19593;SDS011;9944;48.240;16.478;2024-03-07T21:39:39;29.55;;;14.50;;
19593;SDS011;9944;48.240;16.478;2024-03-07T21:43:43;28.92;;;13.90;;
19593;SDS011;9944;48.240;16.478;2024-03-07T21:47:46;26.17;;;14.25;;
19593;SDS011;9944;48.240;16.478;2024-03-07T21:51:50;31.95;;;14.68;;
19593;SDS011;9944;48.240;16.478;2024-03-07T21:55:54;32.97;;;14.45;;
19593;SDS011;9944;48.240;16.478;2024-03-07T22:00:01;29.48;;;14.25;;
19593;SDS011;9944;48.240;16.478;2024-03-07T22:04:08;30.40;;;14.35;;
19593;SDS011;9944;48.240;16.478;2024-03-07T22:08:11;29.70;;;14.07;;
19593;SDS011;9944;48.240;16.478;2024-03-07T22:12:17;30.30;;;14.18;;
19593;SDS011;9944;48.240;16.478;2024-03-07T22:16:23;34.95;;;14.93;;
19593;SDS011;9944;48.240;16.478;2024-03-07T22:20:28;29.58;;;13.85;;
19593;SDS011;9944;48.240;16.478;2024-03-07T22:24:32;31.30;;;14.73;;
19593;SDS011;9944;48.240;16.478;2024-03-07T22:28:37;30.85;;;15.88;;
19593;SDS011;9944;48.240;16.478;2024-03-07T22:32:41;34.17;;;14.73;;
19593;SDS011;9944;48.240;16.478;2024-03-07T22:36:45;29.10;;;14.65;;
19593;SDS011;9944;48.240;16.478;2024-03-07T22:40:51;31.88;;;15.60;;
19593;SDS011;9944;48.240;16.478;2024-03-07T22:44:56;31.13;;;15.55;;
19593;SDS011;9944;48.240;16.478;2024-03-07T22:49:00;31.77;;;15.02;;
19593;SDS011;9944;48.240;16.478;2024-03-07T22:53:03;30.20;;;16.05;;
19593;SDS011;9944;48.240;16.478;2024-03-07T22:57:08;30.38;;;15.25;;
19593;SDS011;9944;48.240;16.478;2024-03-07T23:01:14;32.28;;;14.55;;
19593;SDS011;9944;48.240;16.478;2024-03-07T23:05:17;28.88;;;14.20;;
19593;SDS011;9944;48.240;16.478;2024-03-07T23:09:23;32.55;;;14.80;;
19593;SDS011;9944;48.240;16.478;2024-03-07T23:13:27;31.92;;;15.52;;
19593;SDS011;9944;48.240;16.478;2024-03-07T23:17:31;30.85;;;16.10;;
19593;SDS011;9944;48.240;16.478;2024-03-07T23:21:35;33.10;;;15.80;;
19593;SDS011;9944;48.240;16.478;2024-03-07T23:25:42;28.15;;;15.30;;
19593;SDS011;9944;48.240;16.478;2024-03-07T23:29:46;30.05;;;14.43;;
19593;SDS011;9944;48.240;16.478;2024-03-07T23:33:50;31.25;;;15.90;;
19593;SDS011;9944;48.240;16.478;2024-03-07T23:37:54;29.83;;;15.30;;
19593;SDS011;9944;48.240;16.478;2024-03-07T23:41:58;29.15;;;14.15;;
19593;SDS011;9944;48.240;16.478;2024-03-07T23:46:03;33.03;;;14.63;;
19593;SDS011;9944;48.240;16.478;2024-03-07T23:50:08;32.92;;;15.27;;
19593;SDS011;9944;48.240;16.478;2024-03-07T23:54:14;35.13;;;14.43;;
19593;SDS011;9944;48.240;16.478;2024-03-07T23:58:19;31.33;;;14.35;;
